sensor_id;sensor_type;location;lat;lon;timestamp;P1;durP1;ratioP1;P2;durP2;ratioP2
49460;SDS011;35355;49.198;-0.368;2024-01-15T00:01:08;34.42;;;16.02;;
49460;SDS011;35355;49.198;-0.368;2024-01-15T00:03:34;36.80;;;15.88;;
49460;SDS011;35355;49.198;-0.368;2024-01-15T00:06:00;33.67;;;16.13;;
49460;SDS011;35355;49.198;-0.368;2024-01-15T00:08:28;36.25;;;16.48;;
49460;SDS011;35355;49.198;-0.368;2024-01-15T00:10:54;33.83;;;16.88;;
49460;SDS011;35355;49.198;-0.368;2024-01-15T00:13:22;36.63;;;15.77;;
49460;SDS011;35355;49.198;-0.368;2024-01-15T00:15:50;34.40;;;15.45;;
49460;SDS011;35355;49.198;-0.368;2024-01-15T00:18:22;33.60;;;15.93;;
49460;SDS011;35355;49.198;-0.368;2024-01-15T00:20:48;36.80;;;15.70;;
49460;SDS011;35355;49.198;-0.368;2024-01-15T00:23:22;40.53;;;17.65;;
49460;SDS011;35355;49.198;-0.368;2024-01-15T00:25:48;42.47;;;17.33;;
49460;SDS011;35355;49.198;-0.368;2024-01-15T00:28:15;41.22;;;17.08;;
49460;SDS011;35355;49.198;-0.368;2024-01-15T00:30:50;44.88;;;17.98;;
49460;SDS011;35355;49.198;-0.368;2024-01-15T00:33:16;43.58;;;19.35;;
49460;SDS011;35355;49.198;-0.368;2024-01-15T00:35:45;42.10;;;18.27;;
49460;SDS011;35355;49.198;-0.368;2024-01-15T00:38:12;39.53;;;17.83;;
49460;SDS011;35355;49.198;-0.368;2024-01-15T00:40:41;43.63;;;17.80;;
49460;SDS011;35355;49.198;-0.368;2024-01-15T00:43:06;40.30;;;17.70;;
49460;SDS011;35355;49.198;-0.368;2024-01-15T00:45:33;37.85;;;17.27;;
49460;SDS011;35355;49.198;-0.368;2024-01-15T00:47:58;45.28;;;17.80;;
49460;SDS011;35355;49.198;-0.368;2024-01-15T00:50:26;41.72;;;18.08;;
49460;SDS011;35355;49.198;-0.368;2024-01-15T00:52:52;39.75;;;17.25;;
49460;SDS011;35355;49.198;-0.368;2024-01-15T00:55:21;40.40;;;17.63;;
49460;SDS011;35355;49.198;-0.368;2024-01-15T00:57:46;43.28;;;17.88;;
49460;SDS011;35355;49.198;-0.368;2024-01-15T01:00:12;40.13;;;16.45;;
49460;SDS011;35355;49.198;-0.368;2024-01-15T01:02:38;37.80;;;16.30;;
49460;SDS011;35355;49.198;-0.368;2024-01-15T01:05:04;37.33;;;15.95;;
49460;SDS011;35355;49.198;-0.368;2024-01-15T01:07:36;41.67;;;17.73;;
49460;SDS011;35355;49.198;-0.368;2024-01-15T01:10:04;40.10;;;17.65;;
49460;SDS011;35355;49.198;-0.368;2024-01-15T01:12:30;36.47;;;17.95;;
49460;SDS011;35355;49.198;-0.368;2024-01-15T01:14:58;43.60;;;19.48;;
49460;SDS011;35355;49.198;-0.368;2024-01-15T01:17:24;41.88;;;18.05;;
49460;SDS011;35355;49.198;-0.368;2024-01-15T01:19:50;41.47;;;18.58;;
49460;SDS011;35355;49.198;-0.368;2024-01-15T01:22:19;40.08;;;18.17;;
49460;SDS011;35355;49.198;-0.368;2024-01-15T01:24:44;46.15;;;18.63;;
49460;SDS011;35355;49.198;-0.368;2024-01-15T01:27:10;43.75;;;17.92;;
49460;SDS011;35355;49.198;-0.368;2024-01-15T01:29:35;42.50;;;18.52;;
49460;SDS011;35355;49.198;-0.368;2024-01-15T01:32:03;38.78;;;17.80;;
49460;SDS011;35355;49.198;-0.368;2024-01-15T01:34:32;44.10;;;19.02;;
49460;SDS011;35355;49.198;-0.368;2024-01-15T01:36:58;45.95;;;18.20;;
49460;SDS011;35355;49.198;-0.368;2024-01-15T01:39:24;42.15;;;18.38;;
49460;SDS011;35355;49.198;-0.368;2024-01-15T01:41:49;36.55;;;17.55;;
49460;SDS011;35355;49.198;-0.368;2024-01-15T01:44:22;35.70;;;16.75;;
49460;SDS011;35355;49.198;-0.368;2024-01-15T01:46:50;38.78;;;17.45;;
49460;SDS011;35355;49.198;-0.368;2024-01-15T01:49:17;43.60;;;18.23;;
49460;SDS011;35355;49.198;-0.368;2024-01-15T01:51:43;38.25;;;16.90;;
49460;SDS011;35355;49.198;-0.368;2024-01-15T01:54:16;37.25;;;17.13;;
49460;SDS011;35355;49.198;-0.368;2024-01-15T01:56:44;39.47;;;17.13;;
49460;SDS011;35355;49.198;-0.368;2024-01-15T01:59:14;35.70;;;16.52;;
49460;SDS011;35355;49.198;-0.368;2024-01-15T02:01:43;45.85;;;17.83;;
49460;SDS011;35355;49.198;-0.368;2024-01-15T02:04:14;39.05;;;17.10;;
49460;SDS011;35355;49.198;-0.368;2024-01-15T02:06:43;32.65;;;17.00;;
49460;SDS011;35355;49.198;-0.368;2024-01-15T02:09:08;37.38;;;16.73;;
49460;SDS011;35355;49.198;-0.368;2024-01-15T02:11:35;38.35;;;17.33;;
49460;SDS011;35355;49.198;-0.368;2024-01-15T02:14:01;40.03;;;17.38;;
49460;SDS011;35355;49.198;-0.368;2024-01-15T02:16:27;34.40;;;17.35;;
49460;SDS011;35355;49.198;-0.368;2024-01-15T02:18:56;32.28;;;16.63;;
49460;SDS011;35355;49.198;-0.368;2024-01-15T02:21:24;37.45;;;17.27;;
49460;SDS011;35355;49.198;-0.368;2024-01-15T02:23:54;35.75;;;17.65;;
49460;SDS011;35355;49.198;-0.368;2024-01-15T02:26:26;37.17;;;16.35;;
49460;SDS011;35355;49.198;-0.368;2024-01-15T02:28:51;34.38;;;17.05;;
49460;SDS011;35355;49.198;-0.368;2024-01-15T02:31:21;35.25;;;16.00;;
49460;SDS011;35355;49.198;-0.368;2024-01-15T02:33:49;37.25;;;17.27;;
49460;SDS011;35355;49.198;-0.368;2024-01-15T02:36:15;34.97;;;15.70;;
49460;SDS011;35355;49.198;-0.368;2024-01-15T02:38:41;32.17;;;15.95;;
49460;SDS011;35355;49.198;-0.368;2024-01-15T02:41:14;32.13;;;15.57;;
49460;SDS011;35355;49.198;-0.368;2024-01-15T02:43:40;34.20;;;16.45;;
49460;SDS011;35355;49.198;-0.368;2024-01-15T02:46:09;35.67;;;15.57;;
49460;SDS011;35355;49.198;-0.368;2024-01-15T02:48:34;34.40;;;16.25;;
49460;SDS011;35355;49.198;-0.368;2024-01-15T02:51:06;36.10;;;15.90;;
49460;SDS011;35355;49.198;-0.368;2024-01-15T02:53:32;34.00;;;15.52;;
49460;SDS011;35355;49.198;-0.368;2024-01-15T02:55:57;32.10;;;14.80;;
49460;SDS011;35355;49.198;-0.368;2024-01-15T02:58:26;28.77;;;14.60;;
49460;SDS011;35355;49.198;-0.368;2024-01-15T03:00:57;34.40;;;15.73;;
49460;SDS011;35355;49.198;-0.368;2024-01-15T03:03:23;30.25;;;16.23;;
49460;SDS011;35355;49.198;-0.368;2024-01-15T03:05:49;32.85;;;15.65;;
49460;SDS011;35355;49.198;-0.368;2024-01-15T03:08:14;35.45;;;16.42;;
49460;SDS011;35355;49.198;-0.368;2024-01-15T03:10:40;36.53;;;16.73;;
49460;SDS011;35355;49.198;-0.368;2024-01-15T03:13:05;37.38;;;17.58;;
49460;SDS011;35355;49.198;-0.368;2024-01-15T03:15:31;35.53;;;15.20;;
49460;SDS011;35355;49.198;-0.368;2024-01-15T03:17:56;34.92;;;16.02;;
49460;SDS011;35355;49.198;-0.368;2024-01-15T03:20:22;33.65;;;17.92;;
49460;SDS011;35355;49.198;-0.368;2024-01-15T03:22:48;37.85;;;16.70;;
49460;SDS011;35355;49.198;-0.368;2024-01-15T03:25:13;35.97;;;16.15;;
49460;SDS011;35355;49.198;-0.368;2024-01-15T03:27:39;38.85;;;17.25;;
49460;SDS011;35355;49.198;-0.368;2024-01-15T03:30:18;34.20;;;16.67;;
49460;SDS011;35355;49.198;-0.368;2024-01-15T03:32:46;37.65;;;17.95;;
49460;SDS011;35355;49.198;-0.368;2024-01-15T03:35:12;38.53;;;17.00;;
49460;SDS011;35355;49.198;-0.368;2024-01-15T03:37:40;33.90;;;15.90;;
49460;SDS011;35355;49.198;-0.368;2024-01-15T03:40:11;35.22;;;17.58;;
49460;SDS011;35355;49.198;-0.368;2024-01-15T03:42:39;38.05;;;17.63;;
49460;SDS011;35355;49.198;-0.368;2024-01-15T03:45:15;39.50;;;18.17;;
49460;SDS011;35355;49.198;-0.368;2024-01-15T03:47:41;38.35;;;17.45;;
49460;SDS011;35355;49.198;-0.368;2024-01-15T03:50:15;37.70;;;17.45;;
49460;SDS011;35355;49.198;-0.368;2024-01-15T03:52:44;36.58;;;17.52;;
49460;SDS011;35355;49.198;-0.368;2024-01-15T03:55:13;34.33;;;16.88;;
49460;SDS011;35355;49.198;-0.368;2024-01-15T03:57:38;45.28;;;19.17;;
49460;SDS011;35355;49.198;-0.368;2024-01-15T04:00:04;40.30;;;18.42;;
49460;SDS011;35355;49.198;-0.368;2024-01-15T04:02:30;35.95;;;16.95;;
49460;SDS011;35355;49.198;-0.368;2024-01-15T04:05:02;33.65;;;16.17;;
49460;SDS011;35355;49.198;-0.368;2024-01-15T04:07:30;33.78;;;17.13;;
49460;SDS011;35355;49.198;-0.368;2024-01-15T04:09:56;36.25;;;16.63;;
49460;SDS011;35355;49.198;-0.368;2024-01-15T04:12:21;36.50;;;17.75;;
49460;SDS011;35355;49.198;-0.368;2024-01-15T04:14:50;36.83;;;16.88;;
49460;SDS011;35355;49.198;-0.368;2024-01-15T04:17:18;33.65;;;16.52;;
49460;SDS011;35355;49.198;-0.368;2024-01-15T04:19:44;46.38;;;17.55;;
49460;SDS011;35355;49.198;-0.368;2024-01-15T04:22:10;33.40;;;16.10;;
49460;SDS011;35355;49.198;-0.368;2024-01-15T04:24:35;39.42;;;15.73;;
49460;SDS011;35355;49.198;-0.368;2024-01-15T04:27:04;33.80;;;17.08;;
49460;SDS011;35355;49.198;-0.368;2024-01-15T04:29:38;39.30;;;16.15;;
49460;SDS011;35355;49.198;-0.368;2024-01-15T04:32:04;26.55;;;14.25;;
49460;SDS011;35355;49.198;-0.368;2024-01-15T04:34:32;38.47;;;16.55;;
49460;SDS011;35355;49.198;-0.368;2024-01-15T04:37:03;36.05;;;15.45;;
49460;SDS011;35355;49.198;-0.368;2024-01-15T04:39:32;39.47;;;16.75;;
49460;SDS011;35355;49.198;-0.368;2024-01-15T04:42:00;33.92;;;15.25;;
49460;SDS011;35355;49.198;-0.368;2024-01-15T04:44:28;33.53;;;14.88;;
49460;SDS011;35355;49.198;-0.368;2024-01-15T04:46:54;34.58;;;15.38;;
49460;SDS011;35355;49.198;-0.368;2024-01-15T04:49:19;28.00;;;13.65;;
49460;SDS011;35355;49.198;-0.368;2024-01-15T04:51:45;34.63;;;14.70;;
49460;SDS011;35355;49.198;-0.368;2024-01-15T04:54:11;28.80;;;13.48;;
49460;SDS011;35355;49.198;-0.368;2024-01-15T04:56:37;34.25;;;14.82;;
49460;SDS011;35355;49.198;-0.368;2024-01-15T04:59:06;32.42;;;14.40;;
49460;SDS011;35355;49.198;-0.368;2024-01-15T05:01:31;29.45;;;14.20;;
49460;SDS011;35355;49.198;-0.368;2024-01-15T05:03:57;33.42;;;15.02;;
49460;SDS011;35355;49.198;-0.368;2024-01-15T05:06:26;36.58;;;15.57;;
49460;SDS011;35355;49.198;-0.368;2024-01-15T05:08:54;30.00;;;14.95;;
49460;SDS011;35355;49.198;-0.368;2024-01-15T05:11:20;31.20;;;13.73;;
49460;SDS011;35355;49.198;-0.368;2024-01-15T05:13:48;24.73;;;13.15;;
49460;SDS011;35355;49.198;-0.368;2024-01-15T05:16:16;25.48;;;12.38;;
49460;SDS011;35355;49.198;-0.368;2024-01-15T05:18:44;25.60;;;11.23;;
49460;SDS011;35355;49.198;-0.368;2024-01-15T05:21:09;28.58;;;11.68;;
49460;SDS011;35355;49.198;-0.368;2024-01-15T05:23:35;25.45;;;10.73;;
49460;SDS011;35355;49.198;-0.368;2024-01-15T05:26:02;26.88;;;11.48;;
49460;SDS011;35355;49.198;-0.368;2024-01-15T05:28:28;25.27;;;12.23;;
49460;SDS011;35355;49.198;-0.368;2024-01-15T05:30:54;27.63;;;12.40;;
49460;SDS011;35355;49.198;-0.368;2024-01-15T05:33:20;27.25;;;11.98;;
49460;SDS011;35355;49.198;-0.368;2024-01-15T05:35:52;26.88;;;12.40;;
49460;SDS011;35355;49.198;-0.368;2024-01-15T05:38:19;28.08;;;12.23;;
49460;SDS011;35355;49.198;-0.368;2024-01-15T05:40:44;27.42;;;12.38;;
49460;SDS011;35355;49.198;-0.368;2024-01-15T05:43:10;22.67;;;11.05;;
49460;SDS011;35355;49.198;-0.368;2024-01-15T05:45:35;24.17;;;11.40;;
49460;SDS011;35355;49.198;-0.368;2024-01-15T05:48:01;27.92;;;10.90;;
49460;SDS011;35355;49.198;-0.368;2024-01-15T05:50:26;26.48;;;10.30;;
49460;SDS011;35355;49.198;-0.368;2024-01-15T05:52:54;22.20;;;10.88;;
49460;SDS011;35355;49.198;-0.368;2024-01-15T05:55:19;22.38;;;10.45;;
49460;SDS011;35355;49.198;-0.368;2024-01-15T05:57:45;20.90;;;10.57;;
49460;SDS011;35355;49.198;-0.368;2024-01-15T06:00:15;35.13;;;11.77;;
49460;SDS011;35355;49.198;-0.368;2024-01-15T06:02:41;25.10;;;10.98;;
49460;SDS011;35355;49.198;-0.368;2024-01-15T06:05:06;24.83;;;9.68;;
49460;SDS011;35355;49.198;-0.368;2024-01-15T06:07:34;26.42;;;10.07;;
49460;SDS011;35355;49.198;-0.368;2024-01-15T06:10:00;26.13;;;9.90;;
49460;SDS011;35355;49.198;-0.368;2024-01-15T06:12:29;23.10;;;11.02;;
49460;SDS011;35355;49.198;-0.368;2024-01-15T06:14:54;26.92;;;10.30;;
49460;SDS011;35355;49.198;-0.368;2024-01-15T06:17:20;26.33;;;10.05;;
49460;SDS011;35355;49.198;-0.368;2024-01-15T06:19:45;19.33;;;8.68;;
49460;SDS011;35355;49.198;-0.368;2024-01-15T06:22:11;17.30;;;7.30;;
49460;SDS011;35355;49.198;-0.368;2024-01-15T06:24:41;16.17;;;7.40;;
49460;SDS011;35355;49.198;-0.368;2024-01-15T06:27:06;17.33;;;6.88;;
49460;SDS011;35355;49.198;-0.368;2024-01-15T06:29:37;13.68;;;5.18;;
49460;SDS011;35355;49.198;-0.368;2024-01-15T06:32:03;15.35;;;6.05;;
49460;SDS011;35355;49.198;-0.368;2024-01-15T06:34:29;11.05;;;4.97;;
49460;SDS011;35355;49.198;-0.368;2024-01-15T06:36:58;9.98;;;4.47;;
49460;SDS011;35355;49.198;-0.368;2024-01-15T06:39:26;11.50;;;4.47;;
49460;SDS011;35355;49.198;-0.368;2024-01-15T06:41:51;11.75;;;4.10;;
49460;SDS011;35355;49.198;-0.368;2024-01-15T06:44:19;9.68;;;3.55;;
49460;SDS011;35355;49.198;-0.368;2024-01-15T06:46:46;9.02;;;3.55;;
49460;SDS011;35355;49.198;-0.368;2024-01-15T06:49:12;11.02;;;2.33;;
49460;SDS011;35355;49.198;-0.368;2024-01-15T06:51:40;5.50;;;1.60;;
49460;SDS011;35355;49.198;-0.368;2024-01-15T06:54:06;6.90;;;1.00;;
49460;SDS011;35355;49.198;-0.368;2024-01-15T06:56:32;4.55;;;0.88;;
49460;SDS011;35355;49.198;-0.368;2024-01-15T06:58:57;6.95;;;0.98;;
49460;SDS011;35355;49.198;-0.368;2024-01-15T07:01:23;3.85;;;1.55;;
49460;SDS011;35355;49.198;-0.368;2024-01-15T07:03:51;2.47;;;1.50;;
49460;SDS011;35355;49.198;-0.368;2024-01-15T07:06:17;3.97;;;0.40;;
49460;SDS011;35355;49.198;-0.368;2024-01-15T07:08:43;3.53;;;0.50;;
49460;SDS011;35355;49.198;-0.368;2024-01-15T07:11:08;3.20;;;0.30;;
49460;SDS011;35355;49.198;-0.368;2024-01-15T07:13:37;4.82;;;0.63;;
49460;SDS011;35355;49.198;-0.368;2024-01-15T07:16:08;5.75;;;0.60;;
49460;SDS011;35355;49.198;-0.368;2024-01-15T07:18:34;2.67;;;0.40;;
49460;SDS011;35355;49.198;-0.368;2024-01-15T07:21:02;1.83;;;0.30;;
49460;SDS011;35355;49.198;-0.368;2024-01-15T07:23:27;6.10;;;1.42;;
49460;SDS011;35355;49.198;-0.368;2024-01-15T07:25:53;2.75;;;0.55;;
49460;SDS011;35355;49.198;-0.368;2024-01-15T07:28:19;0.80;;;0.20;;
49460;SDS011;35355;49.198;-0.368;2024-01-15T07:30:44;4.18;;;0.47;;
49460;SDS011;35355;49.198;-0.368;2024-01-15T07:33:10;2.97;;;0.30;;
49460;SDS011;35355;49.198;-0.368;2024-01-15T07:35:38;1.38;;;0.30;;
49460;SDS011;35355;49.198;-0.368;2024-01-15T07:38:03;1.50;;;0.22;;
49460;SDS011;35355;49.198;-0.368;2024-01-15T07:40:29;2.95;;;0.20;;
49460;SDS011;35355;49.198;-0.368;2024-01-15T07:42:57;1.40;;;0.35;;
49460;SDS011;35355;49.198;-0.368;2024-01-15T07:45:26;1.77;;;0.30;;
49460;SDS011;35355;49.198;-0.368;2024-01-15T07:47:55;0.68;;;0.20;;
49460;SDS011;35355;49.198;-0.368;2024-01-15T07:50:23;1.02;;;0.20;;
49460;SDS011;35355;49.198;-0.368;2024-01-15T07:52:48;1.13;;;0.40;;
49460;SDS011;35355;49.198;-0.368;2024-01-15T07:55:23;2.92;;;0.30;;
49460;SDS011;35355;49.198;-0.368;2024-01-15T07:57:49;2.28;;;0.60;;
49460;SDS011;35355;49.198;-0.368;2024-01-15T08:00:18;1.95;;;0.20;;
49460;SDS011;35355;49.198;-0.368;2024-01-15T08:02:44;3.25;;;0.65;;
49460;SDS011;35355;49.198;-0.368;2024-01-15T08:05:10;6.05;;;0.77;;
49460;SDS011;35355;49.198;-0.368;2024-01-15T08:07:35;4.45;;;1.50;;
49460;SDS011;35355;49.198;-0.368;2024-01-15T08:10:09;4.93;;;1.33;;
49460;SDS011;35355;49.198;-0.368;2024-01-15T08:12:37;4.28;;;1.40;;
49460;SDS011;35355;49.198;-0.368;2024-01-15T08:15:09;5.43;;;1.38;;
49460;SDS011;35355;49.198;-0.368;2024-01-15T08:17:34;7.85;;;2.17;;
49460;SDS011;35355;49.198;-0.368;2024-01-15T08:20:03;7.25;;;1.70;;
49460;SDS011;35355;49.198;-0.368;2024-01-15T08:22:30;8.98;;;2.80;;
49460;SDS011;35355;49.198;-0.368;2024-01-15T08:25:03;8.55;;;2.83;;
49460;SDS011;35355;49.198;-0.368;2024-01-15T08:27:29;11.63;;;2.50;;
49460;SDS011;35355;49.198;-0.368;2024-01-15T08:29:54;10.13;;;2.58;;
49460;SDS011;35355;49.198;-0.368;2024-01-15T08:32:20;7.53;;;2.10;;
49460;SDS011;35355;49.198;-0.368;2024-01-15T08:34:48;6.97;;;2.38;;
49460;SDS011;35355;49.198;-0.368;2024-01-15T08:37:17;8.35;;;1.95;;
49460;SDS011;35355;49.198;-0.368;2024-01-15T08:42:36;7.38;;;2.30;;
49460;SDS011;35355;49.198;-0.368;2024-01-15T08:45:04;6.57;;;1.77;;
49460;SDS011;35355;49.198;-0.368;2024-01-15T08:47:31;5.72;;;1.52;;
49460;SDS011;35355;49.198;-0.368;2024-01-15T08:49:56;4.82;;;0.90;;
49460;SDS011;35355;49.198;-0.368;2024-01-15T08:52:24;5.85;;;1.40;;
49460;SDS011;35355;49.198;-0.368;2024-01-15T08:55:02;7.13;;;1.15;;
49460;SDS011;35355;49.198;-0.368;2024-01-15T08:57:29;3.88;;;0.77;;
49460;SDS011;35355;49.198;-0.368;2024-01-15T08:59:54;3.88;;;0.80;;
49460;SDS011;35355;49.198;-0.368;2024-01-15T09:02:20;4.18;;;0.55;;
49460;SDS011;35355;49.198;-0.368;2024-01-15T09:04:47;1.75;;;0.50;;
49460;SDS011;35355;49.198;-0.368;2024-01-15T09:07:13;3.15;;;0.55;;
49460;SDS011;35355;49.198;-0.368;2024-01-15T09:09:40;1.73;;;0.50;;
49460;SDS011;35355;49.198;-0.368;2024-01-15T09:12:07;4.63;;;0.50;;
49460;SDS011;35355;49.198;-0.368;2024-01-15T09:14:36;2.63;;;0.75;;
49460;SDS011;35355;49.198;-0.368;2024-01-15T09:17:05;1.20;;;0.40;;
49460;SDS011;35355;49.198;-0.368;2024-01-15T09:19:34;3.40;;;0.98;;
49460;SDS011;35355;49.198;-0.368;2024-01-15T09:21:59;5.40;;;1.88;;
49460;SDS011;35355;49.198;-0.368;2024-01-15T09:24:25;4.25;;;1.05;;
49460;SDS011;35355;49.198;-0.368;2024-01-15T09:26:51;5.40;;;0.57;;
49460;SDS011;35355;49.198;-0.368;2024-01-15T09:29:17;3.20;;;0.75;;
49460;SDS011;35355;49.198;-0.368;2024-01-15T09:31:45;2.03;;;0.70;;
49460;SDS011;35355;49.198;-0.368;2024-01-15T09:34:11;2.33;;;1.00;;
49460;SDS011;35355;49.198;-0.368;2024-01-15T09:36:42;2.63;;;0.63;;
49460;SDS011;35355;49.198;-0.368;2024-01-15T09:39:08;1.83;;;0.47;;
49460;SDS011;35355;49.198;-0.368;2024-01-15T09:41:35;3.25;;;1.25;;
49460;SDS011;35355;49.198;-0.368;2024-01-15T09:44:04;5.80;;;1.55;;
49460;SDS011;35355;49.198;-0.368;2024-01-15T09:46:31;4.97;;;1.20;;
49460;SDS011;35355;49.198;-0.368;2024-01-15T09:48:58;3.10;;;0.93;;
49460;SDS011;35355;49.198;-0.368;2024-01-15T09:51:24;4.72;;;1.10;;
49460;SDS011;35355;49.198;-0.368;2024-01-15T09:53:50;5.22;;;1.38;;
49460;SDS011;35355;49.198;-0.368;2024-01-15T09:56:19;4.07;;;1.08;;
49460;SDS011;35355;49.198;-0.368;2024-01-15T09:58:44;3.92;;;1.35;;
49460;SDS011;35355;49.198;-0.368;2024-01-15T10:01:14;2.13;;;0.93;;
49460;SDS011;35355;49.198;-0.368;2024-01-15T10:03:42;3.95;;;1.33;;
49460;SDS011;35355;49.198;-0.368;2024-01-15T10:06:10;3.50;;;1.10;;
49460;SDS011;35355;49.198;-0.368;2024-01-15T10:08:40;2.67;;;1.25;;
49460;SDS011;35355;49.198;-0.368;2024-01-15T10:11:06;4.20;;;1.92;;
49460;SDS011;35355;49.198;-0.368;2024-01-15T10:13:34;4.00;;;1.00;;
49460;SDS011;35355;49.198;-0.368;2024-01-15T10:16:01;9.88;;;1.90;;
49460;SDS011;35355;49.198;-0.368;2024-01-15T10:18:31;6.82;;;1.05;;
49460;SDS011;35355;49.198;-0.368;2024-01-15T10:20:57;6.65;;;2.13;;
49460;SDS011;35355;49.198;-0.368;2024-01-15T10:23:23;5.43;;;1.17;;
49460;SDS011;35355;49.198;-0.368;2024-01-15T10:25:49;4.95;;;1.23;;
49460;SDS011;35355;49.198;-0.368;2024-01-15T10:28:16;4.75;;;1.88;;
49460;SDS011;35355;49.198;-0.368;2024-01-15T10:30:47;7.60;;;1.52;;
49460;SDS011;35355;49.198;-0.368;2024-01-15T10:33:19;3.10;;;0.90;;
49460;SDS011;35355;49.198;-0.368;2024-01-15T10:35:50;3.00;;;1.00;;
49460;SDS011;35355;49.198;-0.368;2024-01-15T10:38:18;3.58;;;0.90;;
49460;SDS011;35355;49.198;-0.368;2024-01-15T10:40:47;2.17;;;0.73;;
49460;SDS011;35355;49.198;-0.368;2024-01-15T10:43:21;2.67;;;0.75;;
49460;SDS011;35355;49.198;-0.368;2024-01-15T10:45:48;3.40;;;1.08;;
49460;SDS011;35355;49.198;-0.368;2024-01-15T10:48:16;5.32;;;1.00;;
49460;SDS011;35355;49.198;-0.368;2024-01-15T10:50:43;3.42;;;1.02;;
49460;SDS011;35355;49.198;-0.368;2024-01-15T10:53:09;4.10;;;0.68;;
49460;SDS011;35355;49.198;-0.368;2024-01-15T10:55:43;2.20;;;0.52;;
49460;SDS011;35355;49.198;-0.368;2024-01-15T10:58:11;5.53;;;0.88;;
49460;SDS011;35355;49.198;-0.368;2024-01-15T11:00:40;2.63;;;0.50;;
49460;SDS011;35355;49.198;-0.368;2024-01-15T11:03:06;5.53;;;0.77;;
49460;SDS011;35355;49.198;-0.368;2024-01-15T11:05:42;3.65;;;0.38;;
49460;SDS011;35355;49.198;-0.368;2024-01-15T11:08:10;3.90;;;0.50;;
49460;SDS011;35355;49.198;-0.368;2024-01-15T11:13:15;2.22;;;0.38;;
49460;SDS011;35355;49.198;-0.368;2024-01-15T11:15:58;1.85;;;0.68;;
49460;SDS011;35355;49.198;-0.368;2024-01-15T11:18:41;3.63;;;0.55;;
49460;SDS011;35355;49.198;-0.368;2024-01-15T11:21:28;1.58;;;0.30;;
49460;SDS011;35355;49.198;-0.368;2024-01-15T11:23:57;2.47;;;0.60;;
49460;SDS011;35355;49.198;-0.368;2024-01-15T11:26:31;3.50;;;0.40;;
49460;SDS011;35355;49.198;-0.368;2024-01-15T11:29:01;2.42;;;0.30;;
49460;SDS011;35355;49.198;-0.368;2024-01-15T11:34:06;2.00;;;0.45;;
49460;SDS011;35355;49.198;-0.368;2024-01-15T11:41:55;4.32;;;0.30;;
49460;SDS011;35355;49.198;-0.368;2024-01-15T11:44:28;2.63;;;0.73;;
49460;SDS011;35355;49.198;-0.368;2024-01-15T11:47:04;4.55;;;0.63;;
49460;SDS011;35355;49.198;-0.368;2024-01-15T11:52:02;7.40;;;0.55;;
49460;SDS011;35355;49.198;-0.368;2024-01-15T11:54:30;3.72;;;1.10;;
49460;SDS011;35355;49.198;-0.368;2024-01-15T11:57:00;2.72;;;0.50;;
49460;SDS011;35355;49.198;-0.368;2024-01-15T11:59:34;3.95;;;0.82;;
49460;SDS011;35355;49.198;-0.368;2024-01-15T12:02:00;3.97;;;0.30;;
49460;SDS011;35355;49.198;-0.368;2024-01-15T12:04:26;8.98;;;0.40;;
49460;SDS011;35355;49.198;-0.368;2024-01-15T12:06:51;1.20;;;0.30;;
49460;SDS011;35355;49.198;-0.368;2024-01-15T12:09:19;4.28;;;0.40;;
49460;SDS011;35355;49.198;-0.368;2024-01-15T12:11:45;8.15;;;0.73;;
49460;SDS011;35355;49.198;-0.368;2024-01-15T12:14:18;2.42;;;0.20;;
49460;SDS011;35355;49.198;-0.368;2024-01-15T12:16:44;5.47;;;0.85;;
49460;SDS011;35355;49.198;-0.368;2024-01-15T12:19:09;3.65;;;0.20;;
49460;SDS011;35355;49.198;-0.368;2024-01-15T12:21:35;2.63;;;0.30;;
49460;SDS011;35355;49.198;-0.368;2024-01-15T12:24:00;2.00;;;0.32;;
49460;SDS011;35355;49.198;-0.368;2024-01-15T12:26:25;4.40;;;0.50;;
49460;SDS011;35355;49.198;-0.368;2024-01-15T12:28:51;1.35;;;0.75;;
49460;SDS011;35355;49.198;-0.368;2024-01-15T12:31:16;1.05;;;0.20;;
49460;SDS011;35355;49.198;-0.368;2024-01-15T12:33:44;2.65;;;0.38;;
49460;SDS011;35355;49.198;-0.368;2024-01-15T12:36:12;1.70;;;0.30;;
49460;SDS011;35355;49.198;-0.368;2024-01-15T12:38:38;3.58;;;0.32;;
49460;SDS011;35355;49.198;-0.368;2024-01-15T12:41:04;3.53;;;0.20;;
49460;SDS011;35355;49.198;-0.368;2024-01-15T12:43:30;0.50;;;0.20;;
49460;SDS011;35355;49.198;-0.368;2024-01-15T12:45:56;2.17;;;0.20;;
49460;SDS011;35355;49.198;-0.368;2024-01-15T12:48:21;4.10;;;0.75;;
49460;SDS011;35355;49.198;-0.368;2024-01-15T12:50:47;3.42;;;0.30;;
49460;SDS011;35355;49.198;-0.368;2024-01-15T12:53:13;2.65;;;0.57;;
49460;SDS011;35355;49.198;-0.368;2024-01-15T12:55:38;1.75;;;0.40;;
49460;SDS011;35355;49.198;-0.368;2024-01-15T12:58:03;18.75;;;0.82;;
49460;SDS011;35355;49.198;-0.368;2024-01-15T13:00:29;7.40;;;0.60;;
49460;SDS011;35355;49.198;-0.368;2024-01-15T13:02:55;1.70;;;0.30;;
49460;SDS011;35355;49.198;-0.368;2024-01-15T13:05:22;2.88;;;0.30;;
49460;SDS011;35355;49.198;-0.368;2024-01-15T13:07:53;5.28;;;0.35;;
49460;SDS011;35355;49.198;-0.368;2024-01-15T13:10:19;3.33;;;0.30;;
49460;SDS011;35355;49.198;-0.368;2024-01-15T13:12:44;3.10;;;0.30;;
49460;SDS011;35355;49.198;-0.368;2024-01-15T13:15:10;4.38;;;1.15;;
49460;SDS011;35355;49.198;-0.368;2024-01-15T13:17:41;9.15;;;3.15;;
49460;SDS011;35355;49.198;-0.368;2024-01-15T13:20:10;8.80;;;1.83;;
49460;SDS011;35355;49.198;-0.368;2024-01-15T13:22:36;2.25;;;0.40;;
49460;SDS011;35355;49.198;-0.368;2024-01-15T13:25:04;2.15;;;0.30;;
49460;SDS011;35355;49.198;-0.368;2024-01-15T13:27:32;5.50;;;0.43;;
49460;SDS011;35355;49.198;-0.368;2024-01-15T13:29:57;2.00;;;0.40;;
49460;SDS011;35355;49.198;-0.368;2024-01-15T13:32:24;1.08;;;0.20;;
49460;SDS011;35355;49.198;-0.368;2024-01-15T13:34:53;3.50;;;0.20;;
49460;SDS011;35355;49.198;-0.368;2024-01-15T13:37:19;3.70;;;0.35;;
49460;SDS011;35355;49.198;-0.368;2024-01-15T13:39:44;5.43;;;0.20;;
49460;SDS011;35355;49.198;-0.368;2024-01-15T13:42:10;4.57;;;0.20;;
49460;SDS011;35355;49.198;-0.368;2024-01-15T13:44:36;6.80;;;0.25;;
49460;SDS011;35355;49.198;-0.368;2024-01-15T13:47:02;1.77;;;0.20;;
49460;SDS011;35355;49.198;-0.368;2024-01-15T13:49:30;0.85;;;0.10;;
49460;SDS011;35355;49.198;-0.368;2024-01-15T13:52:05;1.15;;;0.28;;
49460;SDS011;35355;49.198;-0.368;2024-01-15T13:54:33;5.10;;;0.32;;
49460;SDS011;35355;49.198;-0.368;2024-01-15T13:56:58;9.48;;;3.05;;
49460;SDS011;35355;49.198;-0.368;2024-01-15T13:59:24;4.07;;;0.60;;
49460;SDS011;35355;49.198;-0.368;2024-01-15T14:01:50;1.00;;;0.10;;
49460;SDS011;35355;49.198;-0.368;2024-01-15T14:04:15;1.23;;;0.20;;
49460;SDS011;35355;49.198;-0.368;2024-01-15T14:06:41;1.27;;;0.38;;
49460;SDS011;35355;49.198;-0.368;2024-01-15T14:09:09;0.22;;;0.10;;
49460;SDS011;35355;49.198;-0.368;2024-01-15T14:11:36;6.13;;;0.32;;
49460;SDS011;35355;49.198;-0.368;2024-01-15T14:14:02;0.55;;;0.10;;
49460;SDS011;35355;49.198;-0.368;2024-01-15T14:16:28;2.33;;;0.22;;
49460;SDS011;35355;49.198;-0.368;2024-01-15T14:18:53;4.57;;;0.20;;
49460;SDS011;35355;49.198;-0.368;2024-01-15T14:21:18;4.10;;;0.22;;
49460;SDS011;35355;49.198;-0.368;2024-01-15T14:23:44;5.90;;;0.57;;
49460;SDS011;35355;49.198;-0.368;2024-01-15T14:26:09;4.90;;;2.13;;
49460;SDS011;35355;49.198;-0.368;2024-01-15T14:28:41;4.57;;;0.50;;
49460;SDS011;35355;49.198;-0.368;2024-01-15T14:31:06;6.85;;;2.38;;
49460;SDS011;35355;49.198;-0.368;2024-01-15T14:33:32;4.75;;;0.80;;
49460;SDS011;35355;49.198;-0.368;2024-01-15T14:36:06;9.45;;;3.17;;
49460;SDS011;35355;49.198;-0.368;2024-01-15T14:38:32;6.00;;;2.08;;
49460;SDS011;35355;49.198;-0.368;2024-01-15T14:40:57;3.15;;;0.30;;